• Join FlightAware (Why Join?)
  • Login
  • US Flag 
11:08PM EDT


 

Airport Tracker/Info


-or-


 

Live Flight TrackerFlight Track Log ✈ DAL3741 ✈ 16-Apr-2013 ✈ KCWA - KMSP

Flight Track Log - Related Links

Times and Time Zones

All times are in EDT time to prevent confusion due to time zone crossing. See the DAL3741 flight status page for this flight to view local times or setup timezone preferences in your user account.

Time Position Orientation Groundspeed Altitude Reporting Facility
EDT Latitude Longitude Course Direction KTS MPH feet Rate Location/Type
04:45PM 44.7964 -89.8253 278° West 223 257 8,000  Level Minneapolis Center
04:46PM 44.8183 -89.9169 289° West 237 273 10,900 2,040 Climbing Minneapolis Center
04:47PM 44.8497 -90.0331 291° West 305 351 12,300 1,440 Climbing Minneapolis Center
04:48PM 44.8850 -90.1553 292° West 322 371 13,900 780 Climbing Minneapolis Center
04:49PM 44.9183 -90.2858 290° West 337 388 14,000  Climbing Minneapolis Center
04:50PM 44.9411 -90.4175 284° West 330 380 13,900  Descending Minneapolis Center
04:51PM 44.9367 -90.5417 267° West 325 374 14,000  Climbing Minneapolis Center
04:52PM 44.9314 -90.6714 267° West 320 368 14,000  Level Minneapolis Center
04:53PM 44.9272 -90.8019 267° West 318 366 14,000  Level Minneapolis Center
04:54PM 44.9211 -90.9286 266° West 315 362 14,000  Level Minneapolis Center
04:55PM 44.9167 -91.0564 267° West 315 362 14,000  Level Minneapolis Center
04:56PM 44.9106 -91.1836 266° West 313 360 14,000  Level Minneapolis Center
04:57PM 44.9158 -91.3089 273° West 309 356 14,000  Level Minneapolis Center
04:58PM 44.9314 -91.4208 281° West 302 348 14,000  Level Minneapolis Center
04:59PM 44.9483 -91.5450 281° West 309 356 14,000  Level Minneapolis Center
05:00PM 44.9636 -91.6531 281° West 309 356 14,000 -480 Level Minneapolis Center
05:01PM 44.9836 -91.7900 282° West 301 346 13,100 -960 Descending Minneapolis Center
05:02PM 44.9983 -91.9064 280° West 302 348 12,100 -1,080 Descending Minneapolis Center
05:03PM 45.0133 -91.9539 294° West 310 357 11,600 -1,080 Descending FAA TRACON SMA TRACON (SMA)
05:03PM 45.0169 -91.9897 278° West 306 352 11,300 -900 Descending FAA TRACON SMA TRACON (SMA)
05:04PM 45.0242 -92.0356 283° West 308 354 11,000 -660 Descending FAA TRACON SMA TRACON (SMA)
05:04PM 45.0253 -92.0694 273° West 297 342 10,900 -180 Descending FAA TRACON SMA TRACON (SMA)
05:04PM 45.0353 -92.1142 288° West 297 342 10,900  Level FAA TRACON SMA TRACON (SMA)
05:04PM 45.0369 -92.1486 274° West 298 343 10,900  Level FAA TRACON SMA TRACON (SMA)
05:05PM 45.0414 -92.1847 280° West 300 345 10,900  Level FAA TRACON SMA TRACON (SMA)
05:05PM 45.0456 -92.2208 279° West 303 349 10,900  Level FAA TRACON SMA TRACON (SMA)
05:05PM 45.0506 -92.2661 279° West 303 349 10,900  Level FAA TRACON SMA TRACON (SMA)
05:06PM 45.0489 -92.3017 266° West 301 346 10,900  Level FAA TRACON SMA TRACON (SMA)
05:06PM 45.0458 -92.3378 263° West 300 345 10,900  Level FAA TRACON SMA TRACON (SMA)
05:06PM 45.0383 -92.3811 256° West 297 342 10,900  Level FAA TRACON SMA TRACON (SMA)
05:07PM 45.0333 -92.4158 258° West 294 338 10,900 -180 Level FAA TRACON SMA TRACON (SMA)
05:07PM 45.0250 -92.4483 250° West 290 334 10,800 -780 Descending FAA TRACON SMA TRACON (SMA)
05:07PM 45.0044 -92.4781 226° Southwest 282 325 10,400 -1,080 Descending FAA TRACON SMA TRACON (SMA)
05:08PM 44.9878 -92.4992 222° Southwest 268 308 10,100 -900 Descending FAA TRACON SMA TRACON (SMA)
05:08PM 44.9722 -92.5197 223° Southwest 253 291 9,800 -1,080 Descending FAA TRACON SMA TRACON (SMA)
05:08PM 44.9533 -92.5456 224° Southwest 246 283 9,400 -1,080 Descending FAA TRACON SMA TRACON (SMA)
05:09PM 44.9367 -92.5661 221° Southwest 250 288 9,100 -900 Descending FAA TRACON SMA TRACON (SMA)
05:09PM 44.9206 -92.5872 223° Southwest 256 295 8,800 -960 Descending FAA TRACON SMA TRACON (SMA)
05:10PM 44.8997 -92.6142 222° Southwest 262 302 8,400 -1,020 Descending FAA TRACON SMA TRACON (SMA)
05:10PM 44.8683 -92.6575 224° Southwest 258 297 7,800 -1,320 Descending FAA TRACON SMA TRACON (SMA)
05:11PM 44.8517 -92.6881 232° Southwest 252 290 7,200 -1,500 Descending FAA TRACON SMA TRACON (SMA)
05:11PM 44.8386 -92.7125 233° Southwest 252 290 6,800 -1,500 Descending FAA TRACON SMA TRACON (SMA)
05:11PM 44.8231 -92.7439 235° Southwest 255 293 6,200 -1,740 Descending FAA TRACON SMA TRACON (SMA)
05:11PM 44.8108 -92.7697 236° Southwest 257 296 5,700 -1,560 Descending FAA TRACON SMA TRACON (SMA)
05:12PM 44.7986 -92.7961 237° Southwest 260 299 5,200 -1,380 Descending FAA TRACON SMA TRACON (SMA)
05:12PM 44.7969 -92.8253 265° West 259 298 4,800 -1,500 Descending FAA TRACON SMA TRACON (SMA)
05:12PM 44.8022 -92.8611 282° West 246 283 4,200 -1,200 Descending FAA TRACON SMA TRACON (SMA)
05:13PM 44.8053 -92.8903 278° West 243 280 4,000 -480 Descending FAA TRACON SMA TRACON (SMA)
05:13PM 44.8092 -92.9172 282° West 233 268 3,900 -300 Descending FAA TRACON SMA TRACON (SMA)
05:13PM 44.8131 -92.9503 279° West 224 258 3,800 -480 Descending FAA TRACON SMA TRACON (SMA)
05:14PM 44.8161 -92.9750 280° West 213 245 3,600 -480 Descending FAA TRACON SMA TRACON (SMA)
05:14PM 44.8186 -92.9972 279° West 195 224 3,500 -480 Descending FAA TRACON SMA TRACON (SMA)
05:14PM 44.8225 -93.0231 282° West 178 205 3,300 -600 Descending FAA TRACON SMA TRACON (SMA)
05:15PM 44.8253 -93.0447 280° West 178 205 3,100 -480 Descending FAA TRACON SMA TRACON (SMA)
05:15PM 44.8278 -93.0642 280° West 170 196 3,000 -600 Descending FAA TRACON SMA TRACON (SMA)
05:16PM 44.8344 -93.0858 293° West 161 185 2,700 -900 Descending FAA TRACON SMA TRACON (SMA)